Aviation Digital Data Service (ADDS)

Output produced by METARs form (1204 UTC 24 February 2018)
found at http://www.aviationweather.gov/adds/metars/
 
TKPK 241120Z 2412/2512 05014KT P6SM VCSH SCT018 SCT030 
     TEMPO 2412/2414 VRB16G20KT -SHRA BKN018 
     FM241400 06016G22KT P6SM SCT024 
     FM242200 05012KT P6SM VCSH FEW018 SCT035
       
TAF TKPN 241113Z 2412/2512 09012KT 9999 SCT020